Tuesday, October 16, 2018, 10:01 AM GMT
Back to Local

CYQI, Yarmouth, N. S.

Location: , , Canada Lat: 43.833
Local Time: 10:01 AM GMT (10:01 GMT) Lon: -66.083
Time Zone: GMT Elev: 141 ft

Show me the last for .
Show Decoded

2018-10-16 09:32 METAR CYQI 160932Z 27019G28KT 8SM BKN025 OVC140 13/11 A2960 RMK SC5AC3 SLP027
                 DENSITY ALT 300FT =
2018-10-16 09:00 METAR CYQI 160900Z 26020G31KT 5SM -RA BR SCT026 OVC090 13/12 A2959 RMK SC4AS4
                 PRESRR SLP021 DENSITY ALT 300FT =
2018-10-16 08:00 METAR CYQI 160800Z 28021G39KT 5SM -RA BR SCT009 OVC060 15/14 A2957 RMK SF3NS5
                 SLP017 DENSITY ALT 600FT =
2018-10-16 07:42 METAR CYQI 160742Z 27025G35KT 5SM RA BR SCT005 OVC040 16/15 A2957 RMK SF4NS4
                 PRESRR SLP015 DENSITY ALT 700FT =
2018-10-16 07:36 METAR CYQI 160736Z 25022G33KT 3SM RA BR OVC006 16/15 A2955 RMK SF8 PRESRR SLP008
                 DENSITY ALT 700FT =
2018-10-16 07:27 METAR CYQI 160727Z 24023G33KT 4SM -RA BR OVC007 16/16 A2953 RMK ST8 SLP001
                 DENSITY ALT 800FT =
2018-10-16 07:00 METAR CYQI 160700Z 23022G34KT 3SM BR OVC005 16/16 A2953 RMK ST8 INTMT -RA SLP003
                 DENSITY ALT 800FT =
2018-10-16 06:50 METAR CYQI 160650Z 23022G34KT 3SM -RA BR OVC004 16/16 A2954 RMK ST8 SLP005
                 DENSITY ALT 800FT =
2018-10-16 06:24 METAR CYQI 160624Z 22023G34KT 3SM BR OVC004 16/16 A2956 RMK ST8 PRESFR SLP012
                 DENSITY ALT 800FT =
2018-10-16 06:00 METAR CYQI 160600Z 23019G31KT 3SM -RA BR OVC004 16/16 A2959 RMK SF8 /R10/ SLP022
                 DENSITY ALT 700FT =
2018-10-16 05:35 METAR CYQI 160535Z 22020G35KT 3SM -RA BR OVC005 16/16 A2961 RMK SF8 SLP028
                 DENSITY ALT 700FT =
2018-10-16 05:00 METAR CYQI 160500Z 21022G34KT 3SM -RA BR OVC003 16/16 A2963 RMK ST8 SLP036
                 DENSITY ALT 700FT =
2018-10-16 04:16 METAR CYQI 160416Z 21027G38KT 3SM -RA BR OVC003 16/15 A2966 RMK ST8 PRESFR
                 SLP047 DENSITY ALT 600FT =
2018-10-16 04:04 METAR CYQI 160404Z 21021G30KT 3SM RA BR OVC003 16/15 A2968 RMK ST8 PRESFR SLP051
                 DENSITY ALT 600FT =
2018-10-16 04:00 METAR CYQI 160400Z 20020G30KT 3SM -RA BR OVC003 15/15 A2968 RMK ST8 PRESFR
                 SLP052 DENSITY ALT 500FT =
2018-10-16 03:00 METAR CYQI 160300Z 20019G32KT 3SM -RA BR OVC003 15/15 A2974 RMK ST8 SLP074
                 DENSITY ALT 400FT =
2018-10-16 02:00 METAR CYQI 160200Z 19021G31KT 3SM -RA BR OVC003 14/14 A2980 RMK ST8 PRESFR
                 SLP093 DENSITY ALT 300FT =
2018-10-16 01:47 METAR CYQI 160147Z 19023G32KT 3SM -RA BR OVC003 14/14 A2981 RMK ST8 SLP098
                 DENSITY ALT 200FT =
2018-10-16 01:00 METAR CYQI 160100Z 18016G28KT 5SM -RA BR OVC004 13/13 A2986 RMK SF8 PRESFR
                 SLP112 =
2018-10-16 00:33 METAR CYQI 160033Z 17017KT 5SM -RA BR OVC005 12/12 A2989 RMK SF8 SLP124 =
2018-10-16 00:00 METAR CYQI 160000Z 17016G22KT 4SM -RA BR OVC009 12/11 A2992 RMK ST8 PRESFR
                 SLP136 =
2018-10-15 23:53 METAR CYQI 152353Z 17016G23KT 4SM -RA BR OVC012 12/11 A2994 RMK ST8 PRESFR
                 SLP140 =
2018-10-15 23:00 METAR CYQI 152300Z 18015G21KT 10SM -RA OVC029 13/11 A2999 RMK ST8 SLP158 =
2018-10-15 22:00 METAR CYQI 152200Z 19016G26KT 8SM -RA OVC053 13/11 A3003 RMK NS8 SLP172 =
2018-10-15 21:55 METAR CYQI 152155Z 19016G26KT 8SM -RA FEW013 OVC054 13/11 A3003 RMK SF1NS7
                 SLP171 =
2018-10-15 21:00 METAR CYQI 152100Z 19012KT 10SM OVC030 12/10 A3006 RMK SC8 SLP182 =
2018-10-15 20:44 METAR CYQI 152044Z 19012KT 10SM OVC043 12/10 A3007 RMK SC8 SLP185 =
2018-10-15 20:00 METAR CYQI 152000Z 20013G19KT 10SM -SHRA FEW025 BKN043 13/10 A3009 RMK SC1SC7 SC
                 TR CVCTV CLD EMBD SLP192 =
2018-10-15 19:50 METAR CYQI 151950Z 20013G20KT 15SM -SHRA FEW025 OVC045 13/09 A3010 RMK SC1SC7
                 CVCTV CLD EMBD SLP194 =
2018-10-15 19:00 METAR CYQI 151900Z 20013G20KT 15SM FEW030 BKN071 BKN250 14/08 A3011 RMK
                 SC1AC4CI2 SLP197 =
2018-10-15 18:00 METAR CYQI 151800Z 20012KT 15SM SCT023 BKN120 BKN220 15/08 A3014 RMK SC4AC1CC2
                 SLP207 =
2018-10-15 17:00 METAR CYQI 151700Z 17013G19KT 15SM SCT024 BKN120 BKN250 14/10 A3016 RMK
                 SC4AC1CI2 SLP216 =
2018-10-15 16:00 METAR CYQI 151600Z 18013KT 15SM FEW025 BKN250 14/08 A3020 RMK SC2CI4 SLP228 =
2018-10-15 15:00 METAR CYQI 151500Z 19011G17KT 15SM FEW025 BKN250 14/08 A3022 RMK SC2CI5 SLP236 =
2018-10-15 14:00 METAR CYQI 151400Z 19009KT 170V230 15SM FEW025 BKN250 14/07 A3022 RMK SC2CI4
                 SLP235 =
2018-10-15 13:00 METAR CYQI 151300Z 18005KT 15SM FEW030 SCT250 13/09 A3022 RMK SC1CI2 SLP237 =
2018-10-15 12:00 METAR CYQI 151200Z 00000KT 15SM FEW030 SCT250 08/07 A3023 RMK SC2CI1 SLP238 =
2018-10-15 11:00 METAR CYQI 151100Z 12003KT 010V130 15SM FEW040 SCT250 04/04 A3022 RMK SC1CI3
                 SLP235 =

Support USWX by starting your Amazon purchase here.